createdAt,value
2022-09-09T00:04:38.367Z,41.88
2022-09-09T00:10:24.823Z,41.67
2022-09-09T00:16:23.734Z,41.95
2022-09-09T00:22:01.422Z,41.54
2022-09-09T00:27:45.010Z,41.83
2022-09-09T00:33:16.038Z,41.63
2022-09-09T00:38:48.345Z,41.91
2022-09-09T00:44:36.261Z,41.86
2022-09-09T00:50:19.243Z,41.68
2022-09-09T00:55:49.101Z,42.01
2022-09-09T01:01:13.130Z,41.89
2022-09-09T01:06:39.586Z,41.83
2022-09-09T01:12:16.292Z,41.82
2022-09-09T01:17:52.542Z,41.82
2022-09-09T01:23:35.830Z,41.63
2022-09-09T01:28:57.775Z,41.85
2022-09-09T01:34:20.850Z,41.99
2022-09-09T01:39:46.174Z,41.77
2022-09-09T01:45:08.532Z,41.78
2022-09-09T01:50:30.347Z,41.83
2022-09-09T01:56:15.015Z,41.53
2022-09-09T02:01:57.169Z,41.67
2022-09-09T02:07:51.075Z,41.73
2022-09-09T02:13:15.496Z,41.70
2022-09-09T02:18:46.206Z,41.71
2022-09-09T02:24:11.392Z,41.85
2022-09-09T02:29:36.955Z,41.62
2022-09-09T02:35:03.876Z,41.88
2022-09-09T02:40:25.764Z,41.61
2022-09-09T02:45:51.995Z,41.66
2022-09-09T02:51:30.330Z,41.95
2022-09-09T02:56:58.571Z,41.64
2022-09-09T03:02:20.446Z,41.52
2022-09-09T03:07:42.883Z,41.65
2022-09-09T03:13:07.549Z,41.51
2022-09-09T03:18:29.425Z,41.87
2022-09-09T03:23:51.834Z,41.74
2022-09-09T03:29:14.054Z,41.74
2022-09-09T03:34:35.848Z,41.59
2022-09-09T03:39:57.623Z,41.41
2022-09-09T03:45:19.873Z,41.51
2022-09-09T03:50:49.205Z,41.78
2022-09-09T03:56:11.571Z,41.60
2022-09-09T04:01:33.451Z,41.39
2022-09-09T04:06:55.375Z,41.61
2022-09-09T04:12:17.793Z,41.70
2022-09-09T04:17:39.753Z,41.68
2022-09-09T04:23:01.413Z,41.60
2022-09-09T04:28:25.042Z,41.68
2022-09-09T04:33:47.669Z,41.68
2022-09-09T04:39:09.404Z,41.55
2022-09-09T04:44:31.429Z,41.38
2022-09-09T04:49:55.553Z,41.62
2022-09-09T04:55:17.262Z,41.37
2022-09-09T05:00:39.002Z,41.49
2022-09-09T05:06:05.358Z,41.39
2022-09-09T05:11:29.601Z,41.48
2022-09-09T05:16:51.738Z,41.83
2022-09-09T05:22:13.411Z,41.51
2022-09-09T05:27:35.933Z,41.67
2022-09-09T05:32:57.994Z,41.50
2022-09-09T05:38:19.725Z,41.46
2022-09-09T05:43:41.370Z,41.59
2022-09-09T05:49:04.109Z,41.38
2022-09-09T05:54:25.797Z,41.67
2022-09-09T05:59:47.591Z,41.38
2022-09-09T06:05:09.618Z,41.46
2022-09-09T06:10:31.212Z,41.24
2022-09-09T06:15:53.323Z,40.79
2022-09-09T06:21:39.366Z,40.73
2022-09-09T06:27:01.437Z,41.37
2022-09-09T06:32:23.230Z,41.06
2022-09-09T06:37:49.971Z,40.59
2022-09-09T06:43:11.631Z,40.93
2022-09-09T06:48:33.897Z,40.93
2022-09-09T06:53:57.675Z,41.29
2022-09-09T06:59:19.316Z,41.00
2022-09-09T07:04:40.963Z,41.10
2022-09-09T07:10:02.635Z,40.97
2022-09-09T07:15:24.651Z,41.03
2022-09-09T07:20:57.311Z,41.09
2022-09-09T07:26:22.801Z,41.09
2022-09-09T07:31:44.530Z,40.70
2022-09-09T07:37:06.425Z,40.82
2022-09-09T07:42:28.802Z,40.80
2022-09-09T07:47:51.486Z,40.83
2022-09-09T07:53:13.228Z,40.85
2022-09-09T07:58:38.283Z,40.72
2022-09-09T08:04:06.011Z,40.96
2022-09-09T08:09:30.230Z,40.80
2022-09-09T08:14:53.002Z,41.16
2022-09-09T08:20:17.486Z,40.79
2022-09-09T08:25:39.133Z,40.91
2022-09-09T08:31:15.102Z,40.85
2022-09-09T08:36:43.542Z,40.67
2022-09-09T08:42:23.823Z,40.67
2022-09-09T08:47:54.350Z,40.68
2022-09-09T08:53:23.557Z,40.72
2022-09-09T08:58:50.100Z,40.35
2022-09-09T09:04:39.456Z,40.29
2022-09-09T09:10:30.607Z,40.64
2022-09-09T09:15:59.175Z,40.46
2022-09-09T09:21:38.070Z,40.68
2022-09-09T09:27:12.878Z,40.60
2022-09-09T09:32:37.536Z,40.96
2022-09-09T09:43:43.803Z,40.64
2022-09-09T09:49:06.917Z,40.43
2022-09-09T09:54:31.669Z,41.04
2022-09-09T10:00:14.308Z,40.72
2022-09-09T10:05:37.176Z,40.86
2022-09-09T10:11:18.216Z,40.86
2022-09-09T10:16:42.881Z,40.80
2022-09-09T10:22:07.886Z,40.82
2022-09-09T10:28:06.326Z,40.76
2022-09-09T10:33:37.194Z,40.67
2022-09-09T10:39:06.683Z,40.89
2022-09-09T10:44:46.863Z,41.00
2022-09-09T10:50:38.016Z,40.87
2022-09-09T10:56:16.258Z,41.00
2022-09-09T11:01:53.245Z,41.00
2022-09-09T11:07:39.544Z,40.95
2022-09-09T11:13:06.253Z,40.98
2022-09-09T11:18:32.866Z,41.12
2022-09-09T11:24:00.554Z,41.18
2022-09-09T11:29:38.240Z,40.56
2022-09-09T11:35:28.167Z,40.95
2022-09-09T11:41:01.604Z,40.74
2022-09-09T11:46:36.459Z,41.30
2022-09-09T11:51:58.696Z,40.91
2022-09-09T11:57:27.364Z,40.83
2022-09-09T12:02:51.379Z,40.91
2022-09-09T12:08:24.340Z,40.83
2022-09-09T12:14:03.463Z,40.98
2022-09-09T12:19:27.052Z,40.58
2022-09-09T12:25:36.580Z,40.84
2022-09-09T12:31:01.701Z,41.00
2022-09-09T12:36:33.679Z,40.56
2022-09-09T12:41:58.598Z,40.54
2022-09-09T12:47:30.136Z,40.55
2022-09-09T12:52:55.569Z,40.60
2022-09-09T12:58:20.087Z,40.50
2022-09-09T13:03:48.436Z,40.40
2022-09-09T13:09:11.293Z,40.41
2022-09-09T13:14:38.459Z,40.39
2022-09-09T13:20:00.177Z,40.46
2022-09-09T13:25:26.834Z,40.47
2022-09-09T13:31:03.279Z,40.47
2022-09-09T13:36:33.147Z,40.09
2022-09-09T13:41:54.922Z,40.55
2022-09-09T13:47:20.851Z,40.44
2022-09-09T13:52:42.561Z,40.68
2022-09-09T13:58:06.365Z,40.24
2022-09-09T14:03:27.996Z,40.15
2022-09-09T14:08:52.884Z,40.82
2022-09-09T14:14:14.755Z,40.28
2022-09-09T14:19:38.171Z,40.41
2022-09-09T14:24:59.858Z,40.50
2022-09-09T14:30:21.509Z,40.48
2022-09-09T14:35:44.190Z,40.43
2022-09-09T14:41:18.024Z,40.39
2022-09-09T14:46:39.657Z,40.62
2022-09-09T14:52:01.394Z,40.32
2022-09-09T14:57:23.020Z,40.39
2022-09-09T15:02:44.730Z,40.38
2022-09-09T15:08:06.855Z,40.64
2022-09-09T15:13:28.634Z,40.48
2022-09-09T15:18:55.248Z,40.42
2022-09-09T15:24:21.800Z,40.22
2022-09-09T15:29:43.561Z,40.50
2022-09-09T15:35:05.686Z,40.62
2022-09-09T15:40:27.383Z,40.87
2022-09-09T15:45:57.901Z,40.62
2022-09-09T15:51:41.154Z,40.53
2022-09-09T15:57:05.069Z,41.13
2022-09-09T16:02:26.784Z,40.98
2022-09-09T16:07:49.004Z,41.05
2022-09-09T16:13:10.637Z,41.13
2022-09-09T16:18:44.072Z,41.60
2022-09-09T16:24:08.924Z,41.51
2022-09-09T16:29:30.581Z,41.58
2022-09-09T16:34:52.456Z,41.35
2022-09-09T16:40:14.267Z,41.49
2022-09-09T16:45:42.774Z,41.65
2022-09-09T16:51:12.382Z,41.52
2022-09-09T16:56:38.126Z,41.67
2022-09-09T17:02:00.213Z,41.78
2022-09-09T17:07:22.115Z,42.33
2022-09-09T17:12:44.121Z,42.56
2022-09-09T17:18:05.847Z,42.73
2022-09-09T17:23:28.706Z,43.11
2022-09-09T17:28:50.460Z,42.94
2022-09-09T17:34:12.211Z,42.99
2022-09-09T17:39:34.152Z,43.13
2022-09-09T17:44:55.950Z,43.06
2022-09-09T17:50:18.873Z,43.05
2022-09-09T17:55:40.700Z,43.59
2022-09-09T18:01:06.831Z,43.56
2022-09-09T18:06:32.227Z,43.37
2022-09-09T18:11:56.572Z,43.22
2022-09-09T18:17:18.264Z,42.91
2022-09-09T18:22:40.056Z,43.63
2022-09-09T18:28:01.769Z,43.29
2022-09-09T18:33:23.401Z,43.25
2022-09-09T18:38:45.488Z,43.33
2022-09-09T18:44:16.661Z,43.20
2022-09-09T18:49:38.328Z,43.29
2022-09-09T18:55:00.079Z,43.29
2022-09-09T19:00:21.713Z,43.27
2022-09-09T19:05:43.404Z,43.24
2022-09-09T19:11:10.234Z,43.30
2022-09-09T19:16:34.523Z,43.41
2022-09-09T19:21:57.803Z,43.35
2022-09-09T19:27:19.751Z,43.24
2022-09-09T19:32:56.911Z,43.19
2022-09-09T19:38:18.721Z,42.82
2022-09-09T19:43:40.989Z,43.43
2022-09-09T19:49:04.672Z,43.55
2022-09-09T19:54:26.436Z,43.25
2022-09-09T19:59:48.191Z,43.32
2022-09-09T20:05:09.922Z,43.12
2022-09-09T20:10:32.074Z,42.99
2022-09-09T20:16:06.057Z,43.08
2022-09-09T20:21:33.979Z,42.94
2022-09-09T20:26:56.516Z,43.01
2022-09-09T20:32:18.153Z,43.15
2022-09-09T20:37:42.884Z,42.95
2022-09-09T20:43:05.153Z,43.29
2022-09-09T20:48:27.361Z,42.79
2022-09-09T20:53:57.388Z,42.98
2022-09-09T20:59:22.124Z,42.94
2022-09-09T21:04:45.194Z,43.00
2022-09-09T21:10:07.282Z,43.01
2022-09-09T21:15:28.920Z,43.14
2022-09-09T21:20:51.167Z,43.31
2022-09-09T21:26:13.125Z,42.87
2022-09-09T21:31:34.960Z,42.80
2022-09-09T21:36:57.178Z,42.80
2022-09-09T21:42:19.297Z,42.88
2022-09-09T21:47:46.434Z,42.88
2022-09-09T21:53:10.299Z,42.52
2022-09-09T21:58:32.047Z,42.45
2022-09-09T22:03:53.697Z,42.41
2022-09-09T22:09:15.389Z,42.32
2022-09-09T22:14:37.568Z,42.40
2022-09-09T22:19:59.650Z,42.43
2022-09-09T22:25:21.274Z,42.38
2022-09-09T22:30:43.151Z,42.37
2022-09-09T22:36:05.248Z,42.70
2022-09-09T22:41:26.952Z,42.31
2022-09-09T22:46:48.864Z,42.47
2022-09-09T22:52:11.408Z,42.09
2022-09-09T22:57:33.064Z,42.35
2022-09-09T23:02:56.267Z,42.60
2022-09-09T23:08:18.897Z,42.19
2022-09-09T23:13:43.287Z,42.37
2022-09-09T23:19:08.577Z,42.55
2022-09-09T23:24:30.160Z,42.47
2022-09-09T23:29:51.954Z,42.14
2022-09-09T23:35:13.666Z,42.33
2022-09-09T23:40:35.323Z,42.02
2022-09-09T23:45:57.455Z,42.24
2022-09-09T23:51:23.967Z,42.20
2022-09-09T23:56:45.964Z,42.23
